Denver, Colorado
Traffic Map
Current Weather Conditions
Denver, Colorado
Broken Clouds
Broken Clouds
47°
Feels Like: 47°
Wind Chill: 47° Ceiling: 15000
Heat Index: 47° Visibility: 10mi
Dew Point: 22° Wind: 3mph
Humidity: 38% Direction: 340° (NNW)
Pressure: 29.61in Gusts: 0mph
Raw Report DataKBKF 230058Z 34003KT 10SM FEW080 BKN150 08/M05 A2961 RMK AO2A SLP004 T00831053
Traffic Incident Summary
Active as of:
Severity:
Category:
InformationThere was an issue retrieving the traffic information for this location. Please try a different location or try again shortly.
Advertisements
Track Severe Weather on mobile